Time;durP1;ratioP1;P1;durP2;ratioP2;P2;SDS_P1;SDS_P2;PMS_P1;PMS_P2;Temp;Humidity;BMP_temperature;BMP_pressure;BME280_temperature;BME280_humidity;BME280_pressure;Samples;Min_cycle;Max_cycle;Signal;HPM_P1;HPM_P2
2022/03/23 00:01:09;;;;;;;73.50;50.22;;;;;;;;;;5018257;28;20412;-89
2022/03/23 00:03:35;;;;;;;76.57;50.70;;;;;;;;;;5018210;28;20404;-88
2022/03/23 00:06:02;;;;;;;72.82;48.05;;;;;;;;;;5018487;28;20477;-88
2022/03/23 00:08:28;;;;;;;71.57;50.08;;;;;;;;;;5034739;28;20164;-88
2022/03/23 00:10:54;;;;;;;76.68;49.35;;;;;;;;;;5034772;28;20038;-88
2022/03/23 00:13:20;;;;;;;65.93;48.00;;;;;;;;;;5034525;28;20045;-88
2022/03/23 00:15:46;;;;;;;73.10;49.80;;;;;;;;;;5034498;28;20464;-88
2022/03/23 00:18:12;;;;;;;76.70;49.35;;;;;;;;;;5018147;28;20481;-89
2022/03/23 00:20:42;;;;;;;77.95;50.60;;;;;;;;;;5034345;28;20041;-88
2022/03/23 00:23:09;;;;;;;71.93;50.75;;;;;;;;;;5034343;28;20048;-88
2022/03/23 00:25:38;;;;;;;78.13;51.85;;;;;;;;;;5034119;28;20057;-88
2022/03/23 00:28:04;;;;;;;74.75;50.33;;;;;;;;;;5017729;28;20100;-88
2022/03/23 00:30:32;;;;;;;80.10;54.00;;;;;;;;;;5017981;28;20481;-88
2022/03/23 00:32:59;;;;;;;71.53;49.53;;;;;;;;;;5017870;28;20488;-88
2022/03/23 00:35:25;;;;;;;72.38;48.95;;;;;;;;;;5034175;28;20034;-88
2022/03/23 00:37:51;;;;;;;69.53;49.25;;;;;;;;;;5017614;28;20128;-89
2022/03/23 00:40:17;;;;;;;76.32;51.85;;;;;;;;;;5034312;28;20045;-88
2022/03/23 00:42:44;;;;;;;75.57;49.38;;;;;;;;;;5034165;28;20049;-88
2022/03/23 00:45:13;;;;;;;75.07;50.08;;;;;;;;;;5033941;28;20441;-88
2022/03/23 00:47:41;;;;;;;66.70;48.65;;;;;;;;;;5017100;28;20485;-88
2022/03/23 00:50:07;;;;;;;76.45;49.85;;;;;;;;;;5033863;28;20081;-88
2022/03/23 00:52:35;;;;;;;71.07;49.47;;;;;;;;;;5033826;28;20434;-89
2022/03/23 00:55:01;;;;;;;72.55;46.85;;;;;;;;;;5033679;28;20120;-88
2022/03/23 00:57:27;;;;;;;71.80;47.38;;;;;;;;;;5034755;28;20046;-89
2022/03/23 00:59:53;;;;;;;70.50;46.67;;;;;;;;;;5017137;28;20374;-88
2022/03/23 01:02:19;;;;;;;75.22;49.40;;;;;;;;;;5017065;28;20091;-88
2022/03/23 01:04:45;;;;;;;72.10;48.60;;;;;;;;;;5033786;28;20459;-88
2022/03/23 01:07:11;;;;;;;68.47;48.85;;;;;;;;;;5017349;28;20037;-88
2022/03/23 01:09:37;;;;;;;74.18;49.13;;;;;;;;;;5033415;28;20072;-88
2022/03/23 01:12:04;;;;;;;75.63;50.83;;;;;;;;;;5033452;28;20041;-88
2022/03/23 01:14:30;;;;;;;69.00;47.47;;;;;;;;;;5016914;28;20083;-88
2022/03/23 01:16:55;;;;;;;74.90;47.83;;;;;;;;;;5033366;28;20120;-87
2022/03/23 01:19:25;;;;;;;67.60;48.72;;;;;;;;;;5033523;28;20095;-88
2022/03/23 01:21:51;;;;;;;72.38;48.58;;;;;;;;;;5033214;28;20041;-88
2022/03/23 01:24:17;;;;;;;73.82;48.60;;;;;;;;;;5033329;28;20528;-88
2022/03/23 01:26:43;;;;;;;72.20;49.72;;;;;;;;;;5016735;28;20067;-88
2022/03/23 01:29:09;;;;;;;72.38;48.70;;;;;;;;;;5017189;28;20572;-88
2022/03/23 01:31:35;;;;;;;69.90;48.60;;;;;;;;;;5033095;28;20080;-88
2022/03/23 01:34:02;;;;;;;74.38;51.58;;;;;;;;;;5033056;28;20042;-87
2022/03/23 01:36:28;;;;;;;73.43;50.45;;;;;;;;;;5016801;28;20037;-88
2022/03/23 01:38:54;;;;;;;71.20;49.83;;;;;;;;;;5016519;28;20044;-88
2022/03/23 01:41:20;;;;;;;77.57;50.90;;;;;;;;;;5016712;28;20049;-88
2022/03/23 01:43:46;;;;;;;71.63;49.63;;;;;;;;;;5032905;28;20052;-88
2022/03/23 01:46:15;;;;;;;72.13;49.70;;;;;;;;;;5016362;28;20041;-88
2022/03/23 01:48:41;;;;;;;67.82;45.22;;;;;;;;;;5016691;28;20136;-88
2022/03/23 01:51:07;;;;;;;65.75;45.08;;;;;;;;;;5033662;28;20069;-88
2022/03/23 01:53:33;;;;;;;69.40;46.88;;;;;;;;;;5032700;28;20445;-88
2022/03/23 01:56:00;;;;;;;70.22;46.47;;;;;;;;;;5016239;28;20037;-87
2022/03/23 01:58:26;;;;;;;65.25;45.65;;;;;;;;;;5031690;28;20049;-88
2022/03/23 02:00:52;;;;;;;71.20;48.28;;;;;;;;;;5032843;28;20042;-88
2022/03/23 02:03:18;;;;;;;74.95;50.80;;;;;;;;;;5032535;28;20041;-88
2022/03/23 02:05:44;;;;;;;76.53;51.28;;;;;;;;;;5032514;28;20455;-88
2022/03/23 02:08:11;;;;;;;76.30;49.42;;;;;;;;;;5016123;28;20519;-88
2022/03/23 02:10:37;;;;;;;77.90;51.42;;;;;;;;;;5016258;28;20124;-88
2022/03/23 02:13:04;;;;;;;78.38;53.88;;;;;;;;;;5015951;28;20092;-88
2022/03/23 02:15:30;;;;;;;77.05;49.78;;;;;;;;;;5015801;28;20037;-88
2022/03/23 02:17:57;;;;;;;73.88;50.63;;;;;;;;;;5032582;28;20072;-87
2022/03/23 02:20:23;;;;;;;76.18;50.38;;;;;;;;;;5032857;28;20515;-88
2022/03/23 02:22:49;;;;;;;73.22;49.85;;;;;;;;;;5015813;28;20050;-88
2022/03/23 02:25:20;;;;;;;78.97;51.35;;;;;;;;;;5015550;28;20061;-87
2022/03/23 02:27:46;;;;;;;76.22;50.35;;;;;;;;;;5016015;28;20046;-88
2022/03/23 02:30:12;;;;;;;72.75;51.28;;;;;;;;;;5015973;28;20080;-88
2022/03/23 02:32:38;;;;;;;68.60;47.40;;;;;;;;;;5032154;28;20037;-88
2022/03/23 02:35:05;;;;;;;77.20;52.28;;;;;;;;;;5015671;28;20041;-88
2022/03/23 02:37:31;;;;;;;76.75;53.55;;;;;;;;;;5032007;28;20124;-88
2022/03/23 02:39:57;;;;;;;79.15;51.08;;;;;;;;;;5031996;28;20170;-88
2022/03/23 02:42:23;;;;;;;70.60;49.45;;;;;;;;;;5015842;28;20029;-87
2022/03/23 02:44:49;;;;;;;84.70;52.80;;;;;;;;;;5015540;28;20124;-87
2022/03/23 02:47:15;;;;;;;75.63;49.90;;;;;;;;;;5015546;28;20092;-87
2022/03/23 02:49:41;;;;;;;76.10;51.63;;;;;;;;;;5015499;28;20448;-87
2022/03/23 02:52:07;;;;;;;79.32;51.72;;;;;;;;;;5032178;28;20041;-87
2022/03/23 03:03:07;;;;;;;74.95;50.35;;;;;;;;;;5031856;28;20084;-87
2022/03/23 03:05:33;;;;;;;79.63;51.17;;;;;;;;;;5031828;28;20038;-87
2022/03/23 03:10:43;;;;;;;74.28;50.65;;;;;;;;;;5035362;28;20120;-88
2022/03/23 03:13:09;;;;;;;81.47;53.47;;;;;;;;;;5035669;28;20040;-87
2022/03/23 03:15:35;;;;;;;76.60;50.78;;;;;;;;;;5035871;28;20100;-87
2022/03/23 03:18:02;;;;;;;75.00;50.33;;;;;;;;;;5035840;28;20551;-87
2022/03/23 03:20:29;;;;;;;67.47;47.15;;;;;;;;;;5035825;28;20081;-88
2022/03/23 03:22:55;;;;;;;74.78;50.80;;;;;;;;;;5019024;28;20049;-88
2022/03/23 03:25:21;;;;;;;76.65;50.80;;;;;;;;;;5018822;28;20075;-87
2022/03/23 03:27:48;;;;;;;67.72;47.85;;;;;;;;;;5018896;28;20091;-87
2022/03/23 03:30:18;;;;;;;79.30;52.45;;;;;;;;;;5019235;28;20095;-88
2022/03/23 03:32:44;;;;;;;79.13;51.92;;;;;;;;;;5035914;28;20046;-87
2022/03/23 03:35:11;;;;;;;75.28;49.13;;;;;;;;;;5018802;28;20037;-87
2022/03/23 03:37:37;;;;;;;83.22;53.63;;;;;;;;;;5018819;28;20099;-88
2022/03/23 03:40:04;;;;;;;78.60;50.05;;;;;;;;;;5035198;28;20042;-87
2022/03/23 03:42:30;;;;;;;82.88;52.65;;;;;;;;;;5018946;28;20092;-87
2022/03/23 03:44:57;;;;;;;83.90;54.55;;;;;;;;;;5018871;28;20041;-87
2022/03/23 03:47:23;;;;;;;79.35;52.17;;;;;;;;;;5035063;28;20049;-87
2022/03/23 03:49:50;;;;;;;79.38;51.65;;;;;;;;;;5018538;28;20397;-88
2022/03/23 03:52:16;;;;;;;77.82;53.10;;;;;;;;;;5035216;28;20118;-87
2022/03/23 03:54:42;;;;;;;83.40;53.55;;;;;;;;;;5035150;28;20384;-87
2022/03/23 03:57:08;;;;;;;84.88;54.40;;;;;;;;;;5018751;28;20041;-87
2022/03/23 03:59:35;;;;;;;82.95;54.13;;;;;;;;;;5034855;28;20045;-87
2022/03/23 04:02:01;;;;;;;91.03;57.38;;;;;;;;;;5018613;28;20096;-87
2022/03/23 04:04:27;;;;;;;82.18;54.10;;;;;;;;;;5035046;28;20052;-87
2022/03/23 04:06:53;;;;;;;86.65;55.47;;;;;;;;;;5018487;28;20489;-87
2022/03/23 04:09:19;;;;;;;86.00;56.65;;;;;;;;;;5018092;28;20045;-87
2022/03/23 04:11:45;;;;;;;88.30;58.78;;;;;;;;;;5018115;28;20037;-87
2022/03/23 04:14:11;;;;;;;86.25;57.40;;;;;;;;;;5034608;28;20045;-88
2022/03/23 04:16:37;;;;;;;85.20;55.40;;;;;;;;;;5035608;28;20094;-87
2022/03/23 04:19:05;;;;;;;80.47;54.00;;;;;;;;;;5034527;28;20041;-87
2022/03/23 04:21:32;;;;;;;89.10;58.53;;;;;;;;;;5033464;28;20041;-87
2022/03/23 04:23:57;;;;;;;88.43;57.17;;;;;;;;;;5017902;28;20055;-87
2022/03/23 04:26:23;;;;;;;86.78;56.47;;;;;;;;;;5017812;28;20057;-87
2022/03/23 04:28:51;;;;;;;86.28;57.60;;;;;;;;;;5017651;28;20041;-87
2022/03/23 04:31:18;;;;;;;84.13;56.67;;;;;;;;;;5018135;28;20050;-87
2022/03/23 04:33:44;;;;;;;82.15;54.38;;;;;;;;;;5034482;28;20050;-87
2022/03/23 04:36:11;;;;;;;85.63;57.63;;;;;;;;;;5017679;28;20073;-87
2022/03/23 04:38:37;;;;;;;94.15;59.75;;;;;;;;;;5017643;28;20045;-87
2022/03/23 04:41:04;;;;;;;88.35;58.63;;;;;;;;;;5034352;28;20038;-87
2022/03/23 04:43:30;;;;;;;82.63;53.63;;;;;;;;;;5034161;28;20044;-87
2022/03/23 04:45:56;;;;;;;86.20;58.95;;;;;;;;;;5017436;28;20045;-86
2022/03/23 04:48:22;;;;;;;85.65;56.22;;;;;;;;;;5033771;28;20386;-86
2022/03/23 04:50:48;;;;;;;82.03;55.20;;;;;;;;;;5034188;28;20037;-87
2022/03/23 04:53:15;;;;;;;87.10;57.47;;;;;;;;;;5033821;28;20044;-87
2022/03/23 04:55:41;;;;;;;87.55;59.60;;;;;;;;;;5033778;28;20087;-87
2022/03/23 04:58:07;;;;;;;86.20;60.67;;;;;;;;;;5034564;28;20049;-87
2022/03/23 05:00:35;;;;;;;95.72;62.22;;;;;;;;;;5017488;28;20405;-87
2022/03/23 05:03:01;;;;;;;97.05;64.68;;;;;;;;;;5018307;28;20060;-87
2022/03/23 05:05:27;;;;;;;95.20;62.85;;;;;;;;;;5017164;28;20428;-87
2022/03/23 05:07:54;;;;;;;89.63;59.70;;;;;;;;;;5017294;28;20132;-87
2022/03/23 05:10:20;;;;;;;97.07;62.33;;;;;;;;;;5017080;28;20040;-87
2022/03/23 05:12:46;;;;;;;93.25;61.42;;;;;;;;;;5017010;28;20037;-87
2022/03/23 05:15:14;;;;;;;89.28;58.10;;;;;;;;;;5033463;28;20069;-86
2022/03/23 05:17:40;;;;;;;89.43;59.15;;;;;;;;;;5033408;28;20045;-87
2022/03/23 05:20:07;;;;;;;86.90;59.47;;;;;;;;;;5033634;28;20041;-86
2022/03/23 05:22:33;;;;;;;89.15;59.22;;;;;;;;;;5017097;28;20041;-86
2022/03/23 05:25:00;;;;;;;92.53;60.30;;;;;;;;;;5016514;28;20455;-86
2022/03/23 05:27:26;;;;;;;92.63;62.53;;;;;;;;;;5033228;28;20421;-86
2022/03/23 05:29:52;;;;;;;85.47;56.83;;;;;;;;;;5033124;28;20042;-87
2022/03/23 05:32:18;;;;;;;96.55;62.45;;;;;;;;;;5016502;28;20044;-86
2022/03/23 05:34:45;;;;;;;90.82;60.72;;;;;;;;;;5033324;28;20045;-86
2022/03/23 05:37:11;;;;;;;96.47;64.95;;;;;;;;;;5033316;28;20100;-87
2022/03/23 05:39:37;;;;;;;97.70;63.58;;;;;;;;;;5033024;28;20053;-87
2022/03/23 05:42:03;;;;;;;99.93;64.55;;;;;;;;;;5016413;28;20045;-87
2022/03/23 05:44:30;;;;;;;99.35;65.68;;;;;;;;;;5032852;28;20041;-87
2022/03/23 05:46:56;;;;;;;94.30;64.20;;;;;;;;;;5032839;28;20041;-87
2022/03/23 05:49:22;;;;;;;105.60;68.30;;;;;;;;;;5016535;28;20460;-87
2022/03/23 05:51:48;;;;;;;94.47;64.90;;;;;;;;;;5016244;28;20041;-87
2022/03/23 05:54:13;;;;;;;98.53;64.22;;;;;;;;;;5032700;28;20068;-87
2022/03/23 05:56:39;;;;;;;97.90;65.07;;;;;;;;;;5016462;28;20037;-86
2022/03/23 05:59:05;;;;;;;93.75;60.70;;;;;;;;;;5032709;28;20052;-87
2022/03/23 06:01:32;;;;;;;94.30;63.33;;;;;;;;;;5032598;28;20512;-86
2022/03/23 06:03:58;;;;;;;94.22;60.83;;;;;;;;;;5032765;28;20044;-86
2022/03/23 06:06:25;;;;;;;100.50;65.68;;;;;;;;;;5032476;28;20123;-86
2022/03/23 06:08:51;;;;;;;88.05;61.58;;;;;;;;;;5016024;28;20042;-87
2022/03/23 06:11:17;;;;;;;92.85;59.83;;;;;;;;;;5032406;28;20040;-86
2022/03/23 06:13:44;;;;;;;96.25;63.00;;;;;;;;;;5015933;28;20038;-87
2022/03/23 06:16:10;;;;;;;91.65;62.88;;;;;;;;;;5015932;28;20040;-86
2022/03/23 06:18:37;;;;;;;96.50;63.33;;;;;;;;;;5032510;28;20041;-85
2022/03/23 06:21:03;;;;;;;99.55;65.03;;;;;;;;;;5015794;28;20052;-86
2022/03/23 06:23:29;;;;;;;95.32;64.82;;;;;;;;;;5032271;28;20046;-86
2022/03/23 06:25:55;;;;;;;96.55;64.65;;;;;;;;;;5015848;28;20099;-86
2022/03/23 06:28:23;;;;;;;107.22;66.75;;;;;;;;;;5032272;28;20045;-88
2022/03/23 06:30:50;;;;;;;97.28;62.58;;;;;;;;;;5015722;28;20055;-87
2022/03/23 06:33:16;;;;;;;95.35;62.67;;;;;;;;;;5033795;28;20459;-87
2022/03/23 06:35:42;;;;;;;95.00;64.95;;;;;;;;;;5032086;28;20042;-86
2022/03/23 06:38:08;;;;;;;94.93;62.58;;;;;;;;;;5015586;28;20373;-87
2022/03/23 06:40:34;;;;;;;92.95;62.15;;;;;;;;;;5015800;28;20106;-87
2022/03/23 06:43:00;;;;;;;95.68;63.70;;;;;;;;;;5015777;28;20091;-86
2022/03/23 06:45:26;;;;;;;89.70;61.33;;;;;;;;;;5031329;28;20052;-86
2022/03/23 06:47:52;;;;;;;86.55;61.03;;;;;;;;;;5031695;28;20390;-87
2022/03/23 06:50:18;;;;;;;81.75;56.60;;;;;;;;;;5032107;28;20073;-87
2022/03/23 06:52:44;;;;;;;77.45;53.67;;;;;;;;;;5015315;28;20041;-87
2022/03/23 06:55:11;;;;;;;82.75;56.75;;;;;;;;;;5031850;28;20041;-87
2022/03/23 06:57:36;;;;;;;89.20;59.83;;;;;;;;;;5015488;28;20471;-87
2022/03/23 07:00:07;;;;;;;85.15;58.53;;;;;;;;;;5031830;28;20076;-88
2022/03/23 07:02:33;;;;;;;93.57;61.65;;;;;;;;;;5015417;28;20041;-88
2022/03/23 07:04:59;;;;;;;90.30;60.47;;;;;;;;;;5015413;28;20498;-87
2022/03/23 07:07:25;;;;;;;89.97;62.80;;;;;;;;;;5031766;28;20077;-88
2022/03/23 07:09:51;;;;;;;81.45;54.38;;;;;;;;;;5015684;28;20038;-87
2022/03/23 07:12:20;;;;;;;88.20;59.10;;;;;;;;;;5015445;28;20064;-87
2022/03/23 07:14:48;;;;;;;89.85;59.42;;;;;;;;;;5032139;28;20495;-87
2022/03/23 07:17:14;;;;;;;92.95;62.03;;;;;;;;;;5031637;28;20049;-86
2022/03/23 07:19:40;;;;;;;88.25;58.15;;;;;;;;;;5031934;28;20528;-87
2022/03/23 07:22:06;;;;;;;95.15;63.10;;;;;;;;;;5031593;28;20056;-87
2022/03/23 07:24:32;;;;;;;102.07;65.40;;;;;;;;;;5015015;28;20129;-87
2022/03/23 07:26:59;;;;;;;89.05;60.42;;;;;;;;;;5015262;28;20196;-88
2022/03/23 07:29:25;;;;;;;103.20;67.70;;;;;;;;;;5032765;28;20489;-87
2022/03/23 07:31:51;;;;;;;94.63;63.65;;;;;;;;;;5015481;28;20057;-87
2022/03/23 07:34:19;;;;;;;85.63;59.10;;;;;;;;;;5015036;28;20037;-87
2022/03/23 07:36:46;;;;;;;82.10;55.95;;;;;;;;;;5015237;28;20152;-88
2022/03/23 07:39:16;;;;;;;74.80;52.90;;;;;;;;;;5014984;28;20049;-87
2022/03/23 07:41:42;;;;;;;77.20;54.08;;;;;;;;;;5031681;28;20511;-87
2022/03/23 07:44:09;;;;;;;75.63;51.53;;;;;;;;;;5031039;28;20041;-87
2022/03/23 07:46:35;;;;;;;77.30;52.83;;;;;;;;;;5031212;28;20581;-87
2022/03/23 07:49:01;;;;;;;74.88;51.72;;;;;;;;;;5030751;28;20425;-87
2022/03/23 07:51:27;;;;;;;74.07;51.03;;;;;;;;;;5030860;28;20044;-88
2022/03/23 07:53:54;;;;;;;67.63;47.10;;;;;;;;;;5012940;28;20493;-87
2022/03/23 07:56:20;;;;;;;65.82;48.45;;;;;;;;;;5031275;28;20520;-87
2022/03/23 07:58:46;;;;;;;62.22;46.00;;;;;;;;;;5033963;28;20132;-87
2022/03/23 08:01:15;;;;;;;63.08;46.00;;;;;;;;;;5018588;28;20131;-89
2022/03/23 08:03:41;;;;;;;61.13;43.20;;;;;;;;;;5023385;28;20124;-87
2022/03/23 08:06:07;;;;;;;50.05;37.80;;;;;;;;;;5031712;28;20107;-87
2022/03/23 08:08:33;;;;;;;60.17;42.15;;;;;;;;;;5032054;28;20073;-87
2022/03/23 08:10:59;;;;;;;53.63;40.33;;;;;;;;;;5031689;28;20272;-87
2022/03/23 08:13:25;;;;;;;55.05;39.03;;;;;;;;;;5043811;28;20044;-88
2022/03/23 08:15:51;;;;;;;51.72;38.92;;;;;;;;;;5006118;28;20038;-87
2022/03/23 08:18:17;;;;;;;53.35;39.65;;;;;;;;;;5015346;28;20416;-87
2022/03/23 08:20:43;;;;;;;48.92;38.45;;;;;;;;;;5031788;28;20420;-87
2022/03/23 08:23:10;;;;;;;46.38;35.50;;;;;;;;;;5032481;28;20049;-87
2022/03/23 08:25:38;;;;;;;45.05;33.92;;;;;;;;;;5032391;28;20509;-87
2022/03/23 08:28:08;;;;;;;44.75;34.42;;;;;;;;;;5031169;28;20046;-88
2022/03/23 08:30:34;;;;;;;42.53;33.55;;;;;;;;;;5031868;28;20041;-87
2022/03/23 08:33:02;;;;;;;46.90;33.70;;;;;;;;;;5017702;28;20045;-87
2022/03/23 08:35:29;;;;;;;41.97;33.08;;;;;;;;;;5030870;28;20050;-87
2022/03/23 08:37:55;;;;;;;41.05;30.63;;;;;;;;;;5010578;28;20041;-87
2022/03/23 08:40:21;;;;;;;42.70;32.60;;;;;;;;;;5027443;28;20053;-87
2022/03/23 08:42:48;;;;;;;38.33;29.42;;;;;;;;;;5012432;28;20038;-87
2022/03/23 08:45:15;;;;;;;36.03;28.33;;;;;;;;;;5026801;28;20115;-87
2022/03/23 08:47:41;;;;;;;34.97;28.17;;;;;;;;;;4994631;28;20038;-88
2022/03/23 08:50:09;;;;;;;31.80;25.42;;;;;;;;;;5011558;28;20183;-88
2022/03/23 08:52:36;;;;;;;31.05;24.85;;;;;;;;;;5012567;28;20074;-88
2022/03/23 08:55:04;;;;;;;31.20;24.58;;;;;;;;;;5022834;28;20417;-88
2022/03/23 08:57:30;;;;;;;32.28;24.50;;;;;;;;;;5023300;28;20048;-88
2022/03/23 08:59:56;;;;;;;28.58;24.38;;;;;;;;;;5032530;28;20053;-88
2022/03/23 09:02:22;;;;;;;31.95;24.45;;;;;;;;;;5031672;28;20448;-88
2022/03/23 09:04:48;;;;;;;29.63;23.98;;;;;;;;;;5032626;28;20099;-88
2022/03/23 09:07:14;;;;;;;31.35;25.17;;;;;;;;;;5030763;28;20042;-88
2022/03/23 09:09:40;;;;;;;30.15;24.33;;;;;;;;;;5028894;28;20048;-87
2022/03/23 09:12:06;;;;;;;30.83;23.65;;;;;;;;;;5031731;28;20073;-87
2022/03/23 09:14:32;;;;;;;29.80;23.55;;;;;;;;;;5048731;28;20041;-88
2022/03/23 09:16:58;;;;;;;29.73;23.00;;;;;;;;;;5031044;28;20041;-89
2022/03/23 09:19:24;;;;;;;29.00;23.65;;;;;;;;;;5031707;28;20522;-90
2022/03/23 09:21:50;;;;;;;29.02;24.02;;;;;;;;;;5028225;28;20356;-89
2022/03/23 09:24:19;;;;;;;28.73;22.25;;;;;;;;;;5026708;28;20269;-89
2022/03/23 09:26:45;;;;;;;30.13;23.85;;;;;;;;;;5010771;28;20108;-90
2022/03/23 09:29:12;;;;;;;30.85;24.45;;;;;;;;;;5021454;28;20052;-89
2022/03/23 09:31:38;;;;;;;27.00;23.80;;;;;;;;;;5032443;28;20034;-87
2022/03/23 09:34:05;;;;;;;30.08;24.33;;;;;;;;;;5029973;28;20039;-87
2022/03/23 09:39:17;;;;;;;29.63;24.10;;;;;;;;;;5024647;28;20069;-90
2022/03/23 09:41:45;;;;;;;29.60;24.67;;;;;;;;;;5032055;28;20124;-89
2022/03/23 09:44:11;;;;;;;29.63;24.30;;;;;;;;;;5030888;28;20429;-87
2022/03/23 09:46:38;;;;;;;29.30;23.70;;;;;;;;;;5031354;28;20049;-90
2022/03/23 09:49:06;;;;;;;29.40;24.00;;;;;;;;;;5012988;28;20412;-90
2022/03/23 09:51:33;;;;;;;28.92;24.67;;;;;;;;;;5045733;28;20065;-90
2022/03/23 09:53:59;;;;;;;31.05;23.92;;;;;;;;;;5031266;28;20049;-90
2022/03/23 09:56:25;;;;;;;29.25;23.63;;;;;;;;;;5030386;28;20412;-89
2022/03/23 09:58:51;;;;;;;28.92;23.95;;;;;;;;;;5030510;28;20072;-92
2022/03/23 10:01:30;;;;;;;27.98;22.90;;;;;;;;;;5014719;28;20099;-91
2022/03/23 10:04:06;;;;;;;25.63;22.63;;;;;;;;;;5026919;28;20128;-91
2022/03/23 10:06:51;;;;;;;24.42;21.73;;;;;;;;;;5010828;28;20042;-92
2022/03/23 10:09:17;;;;;;;;;;;;;;;;;;5012286;28;20133;-91
2022/03/23 10:12:02;;;;;;;23.95;20.55;;;;;;;;;;5028193;28;20411;-91
2022/03/23 10:14:46;;;;;;;23.90;21.13;;;;;;;;;;5048197;28;20037;-90
2022/03/23 10:17:12;;;;;;;24.60;20.80;;;;;;;;;;5048798;28;20041;-87
2022/03/23 10:19:45;;;;;;;24.05;20.67;;;;;;;;;;5030047;28;20552;-88
2022/03/23 10:22:12;;;;;;;25.02;20.85;;;;;;;;;;5031862;28;20041;-90
2022/03/23 10:24:38;;;;;;;24.65;20.08;;;;;;;;;;5014882;28;20068;-90
2022/03/23 10:27:07;;;;;;;24.15;20.42;;;;;;;;;;5047907;28;20049;-88
2022/03/23 10:29:39;;;;;;;22.98;20.58;;;;;;;;;;5047609;28;20493;-88
2022/03/23 10:32:08;;;;;;;23.52;19.92;;;;;;;;;;5030715;28;20033;-91
2022/03/23 10:34:48;;;;;;;21.80;19.27;;;;;;;;;;5047578;28;20052;-90
2022/03/23 10:37:15;;;;;;;21.08;18.77;;;;;;;;;;5030435;28;20037;-89
2022/03/23 10:39:41;;;;;;;21.52;19.23;;;;;;;;;;5046887;28;20038;-91
2022/03/23 10:42:13;;;;;;;21.60;18.30;;;;;;;;;;5030898;28;20053;-89
2022/03/23 10:44:40;;;;;;;20.52;18.08;;;;;;;;;;5031318;28;20041;-91
2022/03/23 10:47:06;;;;;;;20.55;18.17;;;;;;;;;;5031902;28;20053;-89
2022/03/23 10:49:37;;;;;;;20.25;17.80;;;;;;;;;;5031257;28;20049;-91
2022/03/23 10:52:09;;;;;;;22.30;17.65;;;;;;;;;;5031280;28;20040;-91
2022/03/23 10:54:35;;;;;;;18.63;16.33;;;;;;;;;;5031547;28;20515;-91
2022/03/23 10:57:02;;;;;;;20.13;17.38;;;;;;;;;;5031682;28;20042;-91
2022/03/23 10:59:28;;;;;;;19.42;17.38;;;;;;;;;;5031240;28;20120;-90
2022/03/23 11:02:00;;;;;;;20.83;18.17;;;;;;;;;;5031889;28;20146;-90
2022/03/23 11:04:31;;;;;;;22.15;17.02;;;;;;;;;;5047886;28;20164;-91
2022/03/23 11:07:01;;;;;;;24.63;18.55;;;;;;;;;;5031264;28;20445;-91
2022/03/23 11:15:54;;;;;;;22.60;18.70;;;;;;;;;;5048208;28;20460;-90
2022/03/23 11:18:06;;;;;;;22.17;18.02;;;;;;;;;;5025581;28;20049;-91
2022/03/23 11:20:43;;;;;;;21.73;18.50;;;;;;;;;;5047870;28;20072;-91
2022/03/23 11:23:17;;;;;;;23.42;18.15;;;;;;;;;;5011784;28;20096;-91
2022/03/23 11:25:43;;;;;;;22.92;18.73;;;;;;;;;;5011393;28;20088;-88
2022/03/23 11:28:10;;;;;;;19.75;17.63;;;;;;;;;;5011319;28;20045;-91
2022/03/23 11:30:37;;;;;;;23.45;18.10;;;;;;;;;;5012572;28;20038;-90
2022/03/23 11:33:04;;;;;;;22.25;15.90;;;;;;;;;;5034210;28;20097;-91
2022/03/23 11:35:30;;;;;;;20.48;15.13;;;;;;;;;;5017442;28;20048;-88
2022/03/23 11:37:57;;;;;;;22.30;16.70;;;;;;;;;;5035593;28;20045;-90
2022/03/23 11:40:23;;;;;;;19.55;16.38;;;;;;;;;;5034279;28;20037;-91
2022/03/23 11:42:49;;;;;;;20.10;15.73;;;;;;;;;;5017407;28;20128;-91
2022/03/23 11:45:15;;;;;;;19.70;14.60;;;;;;;;;;5017050;28;20111;-90
2022/03/23 11:47:54;;;;;;;20.95;15.65;;;;;;;;;;5030077;28;20041;-92
2022/03/23 11:50:30;;;;;;;25.02;12.77;;;;;;;;;;5045706;28;20041;-90
2022/03/23 11:53:14;;;;;;;20.63;11.45;;;;;;;;;;5017383;28;20053;-91
2022/03/23 11:55:46;;;;;;;18.98;12.73;;;;;;;;;;5016569;28;20132;-89
2022/03/23 11:58:17;;;;;;;17.33;12.43;;;;;;;;;;5017745;28;20501;-91
2022/03/23 12:00:45;;;;;;;19.95;13.50;;;;;;;;;;5034135;28;20519;-90
2022/03/23 12:03:11;;;;;;;21.05;14.23;;;;;;;;;;5022838;28;20051;-89
2022/03/23 12:05:48;;;;;;;22.23;14.45;;;;;;;;;;5031607;28;20118;-90
2022/03/23 12:08:14;;;;;;;21.77;14.52;;;;;;;;;;5033339;28;20410;-91
2022/03/23 12:10:44;;;;;;;18.83;13.68;;;;;;;;;;5027428;28;20058;-88
2022/03/23 12:13:17;;;;;;;22.58;12.60;;;;;;;;;;5013274;28;20042;-90
2022/03/23 12:15:59;;;;;;;18.48;12.13;;;;;;;;;;5013629;28;20033;-90
2022/03/23 12:18:40;;;;;;;19.85;12.93;;;;;;;;;;5020537;28;20328;-88
2022/03/23 12:21:09;;;;;;;22.60;12.55;;;;;;;;;;5030199;28;20041;-90
2022/03/23 12:23:58;;;;;;;23.75;11.15;;;;;;;;;;5029553;28;20089;-89
2022/03/23 12:26:30;;;;;;;18.92;10.68;;;;;;;;;;4996411;28;20056;-91
2022/03/23 12:29:00;;;;;;;19.65;11.98;;;;;;;;;;5029067;28;20131;-88
2022/03/23 12:31:36;;;;;;;19.23;12.38;;;;;;;;;;5027459;28;20042;-89
2022/03/23 12:34:06;;;;;;;19.40;11.50;;;;;;;;;;5026336;28;20133;-90
2022/03/23 12:39:23;;;;;;;20.10;10.27;;;;;;;;;;5050540;28;20140;-89
2022/03/23 12:41:49;;;;;;;21.40;11.40;;;;;;;;;;5015390;28;20147;-89
2022/03/23 12:44:15;;;;;;;23.10;10.70;;;;;;;;;;5017080;28;20128;-91
2022/03/23 12:46:48;;;;;;;21.02;10.35;;;;;;;;;;5050243;28;20168;-91
2022/03/23 12:57:53;;;;;;;19.80;9.57;;;;;;;;;;5015148;28;20049;-87
2022/03/23 13:00:45;;;;;;;22.58;11.27;;;;;;;;;;5030394;28;20124;-88
2022/03/23 13:03:11;;;;;;;16.75;11.07;;;;;;;;;;5013245;28;20053;-89
2022/03/23 13:05:38;;;;;;;22.60;9.43;;;;;;;;;;5013788;28;20046;-90
2022/03/23 13:08:26;;;;;;;18.50;8.48;;;;;;;;;;5029577;28;20041;-89
2022/03/23 13:10:58;;;;;;;17.33;7.88;;;;;;;;;;5047596;28;20076;-90
2022/03/23 13:13:25;;;;;;;20.40;8.85;;;;;;;;;;5029521;28;20470;-90
2022/03/23 13:15:51;;;;;;;20.20;9.57;;;;;;;;;;5031172;28;20386;-89
2022/03/23 13:18:18;;;;;;;18.23;9.20;;;;;;;;;;5028661;28;20050;-90
2022/03/23 13:20:52;;;;;;;14.65;8.65;;;;;;;;;;5010541;28;20469;-89
2022/03/23 13:23:19;;;;;;;19.07;10.83;;;;;;;;;;5022276;28;20044;-89
2022/03/23 13:25:46;;;;;;;18.30;10.30;;;;;;;;;;5048226;28;20293;-89
2022/03/23 13:28:13;;;;;;;17.42;10.45;;;;;;;;;;5031843;28;20386;-90
2022/03/23 13:30:40;;;;;;;18.65;9.95;;;;;;;;;;5013169;28;20034;-90
2022/03/23 13:33:10;;;;;;;16.92;9.38;;;;;;;;;;5015204;28;20040;-89
2022/03/23 13:35:43;;;;;;;19.67;8.23;;;;;;;;;;5031013;28;20038;-90
2022/03/23 13:38:09;;;;;;;20.33;8.57;;;;;;;;;;4995737;28;20042;-88
2022/03/23 13:43:24;;;;;;;14.77;7.65;;;;;;;;;;5031743;28;20517;-90
2022/03/23 13:45:51;;;;;;;18.10;7.78;;;;;;;;;;5030858;28;20048;-88
2022/03/23 13:48:17;;;;;;;16.48;8.05;;;;;;;;;;5030769;28;20057;-89
2022/03/23 13:50:48;;;;;;;18.38;7.70;;;;;;;;;;5009958;28;20095;-90
2022/03/23 13:53:14;;;;;;;23.55;8.30;;;;;;;;;;5025251;28;20446;-89
2022/03/23 13:55:41;;;;;;;16.92;8.20;;;;;;;;;;5014684;28;20049;-89
2022/03/23 13:58:08;;;;;;;21.08;9.98;;;;;;;;;;5013714;28;20057;-88
2022/03/23 14:00:35;;;;;;;21.88;10.00;;;;;;;;;;5031276;28;20042;-89
2022/03/23 14:03:02;;;;;;;21.42;9.95;;;;;;;;;;5015265;28;20048;-89
2022/03/23 14:05:35;;;;;;;19.48;9.52;;;;;;;;;;5015235;28;20497;-89
2022/03/23 14:08:01;;;;;;;21.27;9.93;;;;;;;;;;5014322;28;20037;-89
2022/03/23 14:10:32;;;;;;;18.00;10.27;;;;;;;;;;5031062;28;20041;-89
2022/03/23 14:12:59;;;;;;;19.48;9.98;;;;;;;;;;5029219;28;20041;-90
2022/03/23 14:15:25;;;;;;;17.48;9.98;;;;;;;;;;5029862;28;20401;-90
2022/03/23 14:17:56;;;;;;;19.85;9.68;;;;;;;;;;5029248;28;20477;-89
2022/03/23 14:20:24;;;;;;;16.83;9.38;;;;;;;;;;5001873;28;20060;-88
2022/03/23 14:22:50;;;;;;;19.38;9.70;;;;;;;;;;5027948;28;20047;-90
2022/03/23 14:25:18;;;;;;;22.67;9.52;;;;;;;;;;5030081;28;20420;-89
2022/03/23 14:27:48;;;;;;;15.07;8.32;;;;;;;;;;5029952;28;20490;-88
2022/03/23 14:30:15;;;;;;;19.40;8.75;;;;;;;;;;5027433;28;20037;-89
2022/03/23 14:32:50;;;;;;;17.55;9.10;;;;;;;;;;5014220;28;20049;-89
2022/03/23 14:35:20;;;;;;;18.60;8.55;;;;;;;;;;5009119;28;20038;-89
2022/03/23 14:37:47;;;;;;;17.50;9.23;;;;;;;;;;5010629;28;20049;-89
2022/03/23 14:40:37;;;;;;;23.88;9.45;;;;;;;;;;5011401;28;20038;-88
2022/03/23 14:43:08;;;;;;;17.30;8.13;;;;;;;;;;5014210;28;20624;-90
2022/03/23 14:45:44;;;;;;;16.85;9.32;;;;;;;;;;5029786;28;20106;-90
2022/03/23 14:48:17;;;;;;;19.33;8.38;;;;;;;;;;5030362;28;20048;-89
2022/03/23 14:50:47;;;;;;;18.80;8.63;;;;;;;;;;5030735;28;20100;-87
2022/03/23 14:53:13;;;;;;;19.50;9.00;;;;;;;;;;5030329;28;20045;-91
2022/03/23 14:55:39;;;;;;;20.15;8.93;;;;;;;;;;5029663;28;20042;-91